LPE2030 SPJC-SPZO
Flight info
| Callsign | LPE2030 |
|---|---|
| Flight time | 0h 58m |
| Altitude | 35000 |
| Route | PAKOL5 PAKOL UM668 DARKI DARK1C |
| Aircraft | A320/M-SDE3FGHIRWY/LB1 |
Departure
| Time | 2026-04-20 23:27 |
|---|---|
| Airport | Jorge Chávez International Airport (SPJC) |
Arrival
| Time | 2026-04-21 00:25 |
|---|---|
| Airport | Alejandro Velasco Astete International Airport (SPZO) |
| Time | Latitude | Longitude | Altitude | Speed | Heading |
|---|---|---|---|---|---|
| 2026-04-20 23:03 | -12.02931 | -77.11383 | 127 ft | 0 kts | 244° |
| 2026-04-20 23:16 | -12.02926 | -77.11372 | 127 ft | 2 kts | 245° |
| 2026-04-20 23:16 | -12.02920 | -77.11359 | 127 ft | 2 kts | 243° |
| 2026-04-20 23:17 | -12.02916 | -77.11343 | 127 ft | 2 kts | 277° |
| 2026-04-20 23:17 | -12.02920 | -77.11329 | 127 ft | 2 kts | 303° |
| 2026-04-20 23:17 | -12.02929 | -77.11319 | 127 ft | 1 kts | 329° |
| 2026-04-20 23:17 | -12.02935 | -77.11317 | 127 ft | 1 kts | 336° |
| 2026-04-20 23:18 | -12.02937 | -77.11315 | 127 ft | 0 kts | 334° |
| 2026-04-20 23:19 | -12.02937 | -77.11316 | 127 ft | 0 kts | 334° |
| 2026-04-20 23:20 | -12.02876 | -77.11346 | 127 ft | 13 kts | 335° |
| 2026-04-20 23:20 | -12.02782 | -77.11393 | 127 ft | 16 kts | 334° |
| 2026-04-20 23:20 | -12.02682 | -77.11443 | 127 ft | 17 kts | 333° |
| 2026-04-20 23:21 | -12.02565 | -77.11500 | 127 ft | 19 kts | 335° |
| 2026-04-20 23:21 | -12.02440 | -77.11562 | 127 ft | 20 kts | 334° |
| 2026-04-20 23:21 | -12.02306 | -77.11629 | 127 ft | 22 kts | 334° |
| 2026-04-20 23:21 | -12.02162 | -77.11697 | 127 ft | 23 kts | 333° |
| 2026-04-20 23:22 | -12.02018 | -77.11770 | 127 ft | 22 kts | 334° |
| 2026-04-20 23:22 | -12.01889 | -77.11835 | 127 ft | 14 kts | 332° |
| 2026-04-20 23:22 | -12.01804 | -77.11805 | 127 ft | 13 kts | 15° |
| 2026-04-20 23:22 | -12.01718 | -77.11839 | 128 ft | 13 kts | 335° |
| 2026-04-20 23:23 | -12.01631 | -77.11880 | 128 ft | 14 kts | 334° |
| 2026-04-20 23:23 | -12.01542 | -77.11923 | 128 ft | 14 kts | 335° |
| 2026-04-20 23:23 | -12.01448 | -77.11968 | 128 ft | 15 kts | 334° |
| 2026-04-20 23:23 | -12.01352 | -77.12015 | 128 ft | 15 kts | 333° |
| 2026-04-20 23:24 | -12.01270 | -77.12081 | 128 ft | 14 kts | 292° |
| 2026-04-20 23:24 | -12.01202 | -77.12164 | 128 ft | 16 kts | 328° |
| 2026-04-20 23:24 | -12.01089 | -77.12223 | 128 ft | 19 kts | 333° |
| 2026-04-20 23:24 | -12.00982 | -77.12274 | 128 ft | 15 kts | 334° |
| 2026-04-20 23:25 | -12.00884 | -77.12315 | 128 ft | 14 kts | 2° |
| 2026-04-20 23:25 | -12.00832 | -77.12241 | 128 ft | 9 kts | 67° |
| 2026-04-20 23:25 | -12.00817 | -77.12204 | 128 ft | 5 kts | 68° |
| 2026-04-20 23:25 | -12.00801 | -77.12163 | 128 ft | 6 kts | 69° |
| 2026-04-20 23:26 | -12.00802 | -77.12121 | 128 ft | 6 kts | 143° |
| 2026-04-20 23:26 | -12.01007 | -77.12015 | 128 ft | 69 kts | 154° |
| 2026-04-20 23:26 | -12.01653 | -77.11696 | 128 ft | 134 kts | 154° |
| 2026-04-20 23:26 | -12.02610 | -77.11206 | 402 ft | 160 kts | 154° |
| 2026-04-20 23:27 | -12.03621 | -77.10725 | 1035 ft | 163 kts | 155° |
| 2026-04-20 23:27 | -12.04658 | -77.10224 | 1470 ft | 172 kts | 154° |
| 2026-04-20 23:27 | -12.05798 | -77.09664 | 1759 ft | 190 kts | 153° |
| 2026-04-20 23:27 | -12.07053 | -77.09044 | 2099 ft | 207 kts | 153° |
| 2026-04-20 23:28 | -12.08419 | -77.08369 | 2367 ft | 229 kts | 153° |
| 2026-04-20 23:28 | -12.09933 | -77.07622 | 2776 ft | 247 kts | 153° |
| 2026-04-20 23:28 | -12.11536 | -77.06831 | 3243 ft | 262 kts | 153° |
| 2026-04-20 23:28 | -12.13183 | -77.06020 | 3934 ft | 266 kts | 153° |
| 2026-04-20 23:29 | -12.14870 | -77.05187 | 4669 ft | 269 kts | 153° |
| 2026-04-20 23:29 | -12.16589 | -77.04339 | 5387 ft | 272 kts | 153° |
| 2026-04-20 23:29 | -12.18319 | -77.03484 | 6089 ft | 275 kts | 153° |
| 2026-04-20 23:29 | -12.20052 | -77.02628 | 6755 ft | 278 kts | 153° |
| 2026-04-20 23:30 | -12.21810 | -77.01759 | 7404 ft | 282 kts | 153° |
| 2026-04-20 23:30 | -12.23529 | -77.00780 | 8024 ft | 284 kts | 140° |
| 2026-04-20 23:30 | -12.24867 | -76.99294 | 8637 ft | 285 kts | 121° |
| 2026-04-20 23:30 | -12.25795 | -76.97500 | 9202 ft | 287 kts | 115° |
| 2026-04-20 23:31 | -12.26664 | -76.95653 | 9792 ft | 291 kts | 115° |
| 2026-04-20 23:31 | -12.27549 | -76.93767 | 10306 ft | 296 kts | 115° |
| 2026-04-20 23:31 | -12.28464 | -76.91832 | 10531 ft | 311 kts | 115° |
| 2026-04-20 23:31 | -12.29438 | -76.89791 | 10799 ft | 325 kts | 116° |
| 2026-04-20 23:32 | -12.30445 | -76.87693 | 11202 ft | 333 kts | 116° |
| 2026-04-20 23:32 | -12.31474 | -76.85558 | 11757 ft | 337 kts | 116° |
| 2026-04-20 23:32 | -12.32524 | -76.83380 | 12267 ft | 341 kts | 115° |
| 2026-04-20 23:32 | -12.33569 | -76.81213 | 12729 ft | 345 kts | 115° |
| 2026-04-20 23:33 | -12.34645 | -76.78977 | 13191 ft | 348 kts | 115° |
| 2026-04-20 23:33 | -12.35716 | -76.76750 | 13661 ft | 352 kts | 115° |
| 2026-04-20 23:33 | -12.36799 | -76.74500 | 14110 ft | 356 kts | 115° |
| 2026-04-20 23:33 | -12.37887 | -76.72238 | 14596 ft | 359 kts | 115° |
| 2026-04-20 23:34 | -12.38989 | -76.69945 | 15035 ft | 361 kts | 115° |
| 2026-04-20 23:34 | -12.40107 | -76.67620 | 15445 ft | 364 kts | 116° |
| 2026-04-20 23:34 | -12.41215 | -76.65318 | 15864 ft | 366 kts | 116° |
| 2026-04-20 23:34 | -12.42346 | -76.62967 | 16335 ft | 368 kts | 116° |
| 2026-04-20 23:35 | -12.43484 | -76.60620 | 16765 ft | 370 kts | 116° |
| 2026-04-20 23:35 | -12.45793 | -76.55874 | 17585 ft | 375 kts | 116° |
| 2026-04-20 23:35 | -12.46964 | -76.53461 | 17997 ft | 377 kts | 116° |
| 2026-04-20 23:36 | -12.48128 | -76.51063 | 18434 ft | 378 kts | 116° |
| 2026-04-20 23:36 | -12.49291 | -76.48668 | 18812 ft | 381 kts | 116° |
| 2026-04-20 23:36 | -12.50482 | -76.46208 | 19212 ft | 382 kts | 116° |
| 2026-04-20 23:36 | -12.51651 | -76.43793 | 19580 ft | 384 kts | 116° |
| 2026-04-20 23:37 | -12.52846 | -76.41322 | 19973 ft | 386 kts | 116° |
| 2026-04-20 23:37 | -12.54043 | -76.38846 | 20336 ft | 388 kts | 116° |
| 2026-04-20 23:37 | -12.55240 | -76.36370 | 20719 ft | 389 kts | 116° |
| 2026-04-20 23:37 | -12.56439 | -76.33889 | 21079 ft | 391 kts | 116° |
| 2026-04-20 23:38 | -12.57657 | -76.31370 | 21421 ft | 394 kts | 116° |
| 2026-04-20 23:38 | -12.58870 | -76.28863 | 21741 ft | 396 kts | 115° |
| 2026-04-20 23:38 | -12.60096 | -76.26324 | 22074 ft | 398 kts | 115° |
| 2026-04-20 23:38 | -12.61312 | -76.23811 | 22413 ft | 399 kts | 115° |
| 2026-04-20 23:39 | -12.62549 | -76.21242 | 22760 ft | 400 kts | 115° |
| 2026-04-20 23:39 | -12.63781 | -76.18681 | 23079 ft | 402 kts | 115° |
| 2026-04-20 23:39 | -12.65020 | -76.16110 | 23394 ft | 404 kts | 115° |
| 2026-04-20 23:39 | -12.66262 | -76.13535 | 23717 ft | 406 kts | 115° |
| 2026-04-20 23:40 | -12.67513 | -76.10937 | 24040 ft | 408 kts | 115° |
| 2026-04-20 23:40 | -12.68776 | -76.08314 | 24351 ft | 410 kts | 115° |
| 2026-04-20 23:40 | -12.70039 | -76.05688 | 24640 ft | 413 kts | 115° |
| 2026-04-20 23:40 | -12.71309 | -76.03050 | 24947 ft | 415 kts | 115° |
| 2026-04-20 23:41 | -12.72570 | -76.00433 | 25268 ft | 416 kts | 115° |
| 2026-04-20 23:41 | -12.73775 | -75.97734 | 25561 ft | 418 kts | 111° |
| 2026-04-20 23:41 | -12.74781 | -75.94935 | 25851 ft | 419 kts | 107° |
| 2026-04-20 23:41 | -12.75575 | -75.92048 | 26163 ft | 420 kts | 103° |
| 2026-04-20 23:42 | -12.76265 | -75.89145 | 26455 ft | 422 kts | 102° |
| 2026-04-20 23:42 | -12.76951 | -75.86189 | 26755 ft | 424 kts | 102° |
| 2026-04-20 23:42 | -12.77628 | -75.83263 | 27052 ft | 425 kts | 102° |
| 2026-04-20 23:42 | -12.78314 | -75.80307 | 27354 ft | 427 kts | 102° |
| 2026-04-20 23:43 | -12.79003 | -75.77354 | 27643 ft | 428 kts | 102° |
| 2026-04-20 23:43 | -12.79697 | -75.74379 | 27912 ft | 430 kts | 102° |
| 2026-04-20 23:43 | -12.80387 | -75.71425 | 28177 ft | 432 kts | 102° |
| 2026-04-20 23:43 | -12.81088 | -75.68425 | 28455 ft | 433 kts | 102° |
| 2026-04-20 23:44 | -12.81796 | -75.65398 | 28738 ft | 435 kts | 102° |
| 2026-04-20 23:44 | -12.82492 | -75.62421 | 29022 ft | 436 kts | 102° |
| 2026-04-20 23:44 | -12.83202 | -75.59388 | 29304 ft | 438 kts | 102° |
| 2026-04-20 23:44 | -12.83911 | -75.56355 | 29571 ft | 439 kts | 102° |
| 2026-04-20 23:45 | -12.84618 | -75.53324 | 29842 ft | 441 kts | 102° |
| 2026-04-20 23:45 | -12.85338 | -75.50243 | 30123 ft | 442 kts | 102° |
| 2026-04-20 23:45 | -12.86052 | -75.47176 | 30407 ft | 443 kts | 102° |
| 2026-04-20 23:45 | -12.86755 | -75.44153 | 30679 ft | 444 kts | 102° |
| 2026-04-20 23:46 | -12.87479 | -75.41044 | 30939 ft | 445 kts | 102° |
| 2026-04-20 23:46 | -12.88197 | -75.37960 | 31171 ft | 447 kts | 102° |
| 2026-04-20 23:46 | -12.88909 | -75.34894 | 31402 ft | 448 kts | 102° |
| 2026-04-20 23:46 | -12.89630 | -75.31794 | 31637 ft | 449 kts | 102° |
| 2026-04-20 23:47 | -12.90358 | -75.28657 | 31872 ft | 450 kts | 102° |
| 2026-04-20 23:47 | -12.91088 | -75.25516 | 32092 ft | 451 kts | 102° |
| 2026-04-20 23:47 | -12.91816 | -75.22385 | 32304 ft | 452 kts | 101° |
| 2026-04-20 23:47 | -12.92538 | -75.19273 | 32503 ft | 454 kts | 101° |
| 2026-04-20 23:48 | -12.93264 | -75.16138 | 32702 ft | 455 kts | 101° |
| 2026-04-20 23:48 | -12.93996 | -75.12976 | 32900 ft | 456 kts | 101° |
| 2026-04-20 23:48 | -12.94724 | -75.09830 | 33181 ft | 455 kts | 101° |
| 2026-04-20 23:48 | -12.95455 | -75.06670 | 33512 ft | 453 kts | 101° |
| 2026-04-20 23:49 | -12.96183 | -75.03527 | 33835 ft | 451 kts | 101° |
| 2026-04-20 23:49 | -12.96903 | -75.00422 | 34133 ft | 450 kts | 101° |
| 2026-04-20 23:49 | -12.97631 | -74.97273 | 34387 ft | 449 kts | 101° |
| 2026-04-20 23:49 | -12.98350 | -74.94158 | 34589 ft | 450 kts | 102° |
| 2026-04-20 23:50 | -12.99070 | -74.91031 | 34765 ft | 450 kts | 101° |
| 2026-04-20 23:50 | -12.99792 | -74.87910 | 34952 ft | 451 kts | 101° |
| 2026-04-20 23:50 | -13.00513 | -74.84771 | 35137 ft | 451 kts | 101° |
| 2026-04-20 23:50 | -13.01232 | -74.81647 | 35298 ft | 451 kts | 101° |
| 2026-04-20 23:51 | -13.01950 | -74.78532 | 35467 ft | 451 kts | 101° |
| 2026-04-20 23:51 | -13.02670 | -74.75398 | 35606 ft | 452 kts | 101° |
| 2026-04-20 23:51 | -13.03392 | -74.72247 | 35717 ft | 453 kts | 101° |
| 2026-04-20 23:51 | -13.04120 | -74.69076 | 35826 ft | 455 kts | 101° |
| 2026-04-20 23:52 | -13.04846 | -74.65918 | 35888 ft | 455 kts | 101° |
| 2026-04-20 23:52 | -13.06288 | -74.59636 | 35866 ft | 456 kts | 101° |
| 2026-04-20 23:53 | -13.07748 | -74.53257 | 35839 ft | 456 kts | 101° |
| 2026-04-20 23:53 | -13.09196 | -74.46928 | 35759 ft | 456 kts | 101° |
| 2026-04-20 23:54 | -13.10638 | -74.40616 | 35655 ft | 456 kts | 101° |
| 2026-04-20 23:54 | -13.12084 | -74.34278 | 35603 ft | 457 kts | 101° |
| 2026-04-20 23:55 | -13.13522 | -74.27960 | 35487 ft | 457 kts | 101° |
| 2026-04-20 23:55 | -13.14973 | -74.21586 | 35440 ft | 458 kts | 101° |
| 2026-04-20 23:56 | -13.16389 | -74.15382 | 35443 ft | 458 kts | 101° |
| 2026-04-20 23:56 | -13.17843 | -74.08995 | 35444 ft | 458 kts | 101° |
| 2026-04-20 23:57 | -13.19290 | -74.02633 | 35484 ft | 457 kts | 101° |
| 2026-04-20 23:57 | -13.20728 | -73.96290 | 35575 ft | 457 kts | 101° |
| 2026-04-20 23:58 | -13.22164 | -73.89953 | 35621 ft | 457 kts | 101° |
| 2026-04-20 23:58 | -13.23600 | -73.83601 | 35624 ft | 458 kts | 101° |
| 2026-04-20 23:59 | -13.25030 | -73.77270 | 35616 ft | 458 kts | 101° |
| 2026-04-20 23:59 | -13.26471 | -73.70877 | 35607 ft | 458 kts | 101° |
| 2026-04-21 00:00 | -13.27898 | -73.64521 | 35644 ft | 458 kts | 101° |
| 2026-04-21 00:00 | -13.29330 | -73.58170 | 35691 ft | 457 kts | 101° |
| 2026-04-21 00:01 | -13.30765 | -73.51792 | 35735 ft | 457 kts | 101° |
| 2026-04-21 00:01 | -13.32184 | -73.45473 | 35747 ft | 457 kts | 101° |
| 2026-04-21 00:02 | -13.33610 | -73.39108 | 35717 ft | 457 kts | 101° |
| 2026-04-21 00:02 | -13.35037 | -73.32725 | 35682 ft | 458 kts | 101° |
| 2026-04-21 00:03 | -13.36458 | -73.26370 | 35650 ft | 458 kts | 101° |
| 2026-04-21 00:03 | -13.37850 | -73.20139 | 35636 ft | 458 kts | 101° |
| 2026-04-21 00:04 | -13.39271 | -73.13769 | 35650 ft | 458 kts | 101° |
| 2026-04-21 00:04 | -13.40690 | -73.07395 | 35642 ft | 459 kts | 101° |
| 2026-04-21 00:04 | -13.41397 | -73.04221 | 35344 ft | 458 kts | 101° |
| 2026-04-21 00:05 | -13.42102 | -73.01045 | 35049 ft | 454 kts | 101° |
| 2026-04-21 00:05 | -13.42806 | -72.97868 | 34751 ft | 452 kts | 101° |
| 2026-04-21 00:05 | -13.43494 | -72.94761 | 34459 ft | 449 kts | 101° |
| 2026-04-21 00:05 | -13.44187 | -72.91635 | 34163 ft | 450 kts | 101° |
| 2026-04-21 00:06 | -13.44886 | -72.88487 | 33869 ft | 450 kts | 101° |
| 2026-04-21 00:06 | -13.45647 | -72.85407 | 33561 ft | 451 kts | 103° |
| 2026-04-21 00:06 | -13.46478 | -72.82265 | 33113 ft | 453 kts | 103° |
| 2026-04-21 00:06 | -13.47311 | -72.79138 | 32531 ft | 454 kts | 104° |
| 2026-04-21 00:07 | -13.48133 | -72.76054 | 31921 ft | 453 kts | 104° |
| 2026-04-21 00:07 | -13.48959 | -72.72944 | 31461 ft | 447 kts | 104° |
| 2026-04-21 00:07 | -13.49781 | -72.69845 | 31026 ft | 444 kts | 104° |
| 2026-04-21 00:07 | -13.50586 | -72.66805 | 30577 ft | 441 kts | 104° |
| 2026-04-21 00:08 | -13.51381 | -72.63802 | 30129 ft | 437 kts | 104° |
| 2026-04-21 00:08 | -13.52179 | -72.60780 | 29668 ft | 434 kts | 104° |
| 2026-04-21 00:08 | -13.52963 | -72.57809 | 29211 ft | 430 kts | 104° |
| 2026-04-21 00:08 | -13.53738 | -72.54869 | 28762 ft | 427 kts | 104° |
| 2026-04-21 00:09 | -13.54513 | -72.51927 | 28325 ft | 423 kts | 104° |
| 2026-04-21 00:09 | -13.55277 | -72.49028 | 27898 ft | 420 kts | 104° |
| 2026-04-21 00:09 | -13.56036 | -72.46143 | 27473 ft | 416 kts | 104° |
| 2026-04-21 00:09 | -13.56792 | -72.43272 | 27047 ft | 413 kts | 104° |
| 2026-04-21 00:10 | -13.57534 | -72.40449 | 26622 ft | 410 kts | 104° |
| 2026-04-21 00:10 | -13.58280 | -72.37604 | 26195 ft | 407 kts | 104° |
| 2026-04-21 00:10 | -13.59012 | -72.34816 | 25770 ft | 404 kts | 104° |
| 2026-04-21 00:10 | -13.59741 | -72.32040 | 25325 ft | 401 kts | 104° |
| 2026-04-21 00:11 | -13.60438 | -72.29387 | 24903 ft | 398 kts | 104° |
| 2026-04-21 00:11 | -13.61183 | -72.26551 | 24462 ft | 393 kts | 104° |
| 2026-04-21 00:11 | -13.61850 | -72.24016 | 24173 ft | 386 kts | 104° |
| 2026-04-21 00:11 | -13.62560 | -72.21314 | 23838 ft | 380 kts | 104° |
| 2026-04-21 00:12 | -13.63237 | -72.18738 | 23502 ft | 375 kts | 104° |
| 2026-04-21 00:12 | -13.63919 | -72.16134 | 23173 ft | 369 kts | 104° |
| 2026-04-21 00:12 | -13.64584 | -72.13593 | 22852 ft | 364 kts | 104° |
| 2026-04-21 00:12 | -13.65231 | -72.11122 | 22543 ft | 359 kts | 104° |
| 2026-04-21 00:13 | -13.65881 | -72.08638 | 22237 ft | 354 kts | 104° |
| 2026-04-21 00:13 | -13.66513 | -72.06222 | 21946 ft | 349 kts | 104° |
| 2026-04-21 00:13 | -13.67137 | -72.03840 | 21661 ft | 344 kts | 104° |
| 2026-04-21 00:13 | -13.67761 | -72.01466 | 21325 ft | 337 kts | 105° |
| 2026-04-21 00:14 | -13.68494 | -71.99198 | 20983 ft | 334 kts | 111° |
| 2026-04-21 00:14 | -13.69436 | -71.97031 | 20722 ft | 329 kts | 117° |
| 2026-04-21 00:14 | -13.70541 | -71.95000 | 20495 ft | 322 kts | 120° |
| 2026-04-21 00:14 | -13.71676 | -71.93032 | 20279 ft | 316 kts | 121° |
| 2026-04-21 00:15 | -13.72792 | -71.91109 | 20057 ft | 310 kts | 121° |
| 2026-04-21 00:15 | -13.73889 | -71.89211 | 19842 ft | 304 kts | 120° |
| 2026-04-21 00:15 | -13.74948 | -71.87373 | 19635 ft | 298 kts | 120° |
| 2026-04-21 00:15 | -13.75994 | -71.85551 | 19439 ft | 292 kts | 120° |
| 2026-04-21 00:16 | -13.76948 | -71.83716 | 19218 ft | 287 kts | 111° |
| 2026-04-21 00:16 | -13.77498 | -71.81770 | 18930 ft | 281 kts | 98° |
| 2026-04-21 00:16 | -13.77633 | -71.79801 | 18611 ft | 274 kts | 87° |
| 2026-04-21 00:16 | -13.77395 | -71.77897 | 18375 ft | 264 kts | 76° |
| 2026-04-21 00:17 | -13.76841 | -71.76166 | 18336 ft | 247 kts | 68° |
| 2026-04-21 00:17 | -13.76054 | -71.74639 | 18063 ft | 241 kts | 57° |
| 2026-04-21 00:17 | -13.75032 | -71.73286 | 17767 ft | 236 kts | 48° |
| 2026-04-21 00:17 | -13.73833 | -71.72159 | 17453 ft | 225 kts | 38° |
| 2026-04-21 00:18 | -13.72576 | -71.71312 | 17252 ft | 209 kts | 29° |
| 2026-04-21 00:18 | -13.71261 | -71.70696 | 17090 ft | 204 kts | 21° |
| 2026-04-21 00:18 | -13.69881 | -71.70301 | 16779 ft | 200 kts | 12° |
| 2026-04-21 00:18 | -13.68520 | -71.70129 | 16433 ft | 198 kts | 4° |
| 2026-04-21 00:19 | -13.67136 | -71.70158 | 16173 ft | 195 kts | 355° |
| 2026-04-21 00:19 | -13.65835 | -71.70373 | 15919 ft | 181 kts | 348° |
| 2026-04-21 00:19 | -13.64649 | -71.70738 | 15816 ft | 175 kts | 341° |
| 2026-04-21 00:19 | -13.63525 | -71.71246 | 15534 ft | 177 kts | 334° |
| 2026-04-21 00:20 | -13.62468 | -71.71900 | 15207 ft | 175 kts | 326° |
| 2026-04-21 00:20 | -13.61518 | -71.72679 | 14927 ft | 175 kts | 319° |
| 2026-04-21 00:20 | -13.60664 | -71.73579 | 14648 ft | 174 kts | 311° |
| 2026-04-21 00:20 | -13.59936 | -71.74568 | 14375 ft | 174 kts | 304° |
| 2026-04-21 00:21 | -13.59329 | -71.75657 | 14083 ft | 173 kts | 297° |
| 2026-04-21 00:21 | -13.58856 | -71.76784 | 13839 ft | 171 kts | 293° |
| 2026-04-21 00:21 | -13.58414 | -71.77923 | 13720 ft | 171 kts | 293° |
| 2026-04-21 00:21 | -13.57969 | -71.79069 | 13437 ft | 171 kts | 293° |
| 2026-04-21 00:22 | -13.57531 | -71.80191 | 13204 ft | 170 kts | 293° |
| 2026-04-21 00:22 | -13.57091 | -71.81309 | 12985 ft | 169 kts | 293° |
| 2026-04-21 00:22 | -13.56679 | -71.82456 | 12792 ft | 170 kts | 290° |
| 2026-04-21 00:22 | -13.56300 | -71.83596 | 12555 ft | 169 kts | 290° |
| 2026-04-21 00:23 | -13.55918 | -71.84744 | 12328 ft | 168 kts | 292° |
| 2026-04-21 00:23 | -13.55464 | -71.85840 | 12099 ft | 167 kts | 298° |
| 2026-04-21 00:23 | -13.54879 | -71.86861 | 11872 ft | 166 kts | 303° |
| 2026-04-21 00:23 | -13.54361 | -71.87933 | 11604 ft | 168 kts | 290° |
| 2026-04-21 00:24 | -13.54059 | -71.89085 | 11298 ft | 166 kts | 278° |
| 2026-04-21 00:24 | -13.53941 | -71.90257 | 11105 ft | 165 kts | 274° |
| 2026-04-21 00:24 | -13.53832 | -71.91430 | 10916 ft | 164 kts | 277° |
| 2026-04-21 00:24 | -13.53709 | -71.92597 | 10757 ft | 162 kts | 275° |
| 2026-04-21 00:25 | -13.53615 | -71.93512 | 10787 ft | 89 kts | 276° |
| 2026-04-21 00:25 | -13.53576 | -71.93951 | 10810 ft | 38 kts | 258° |
| 2026-04-21 00:25 | -13.53628 | -71.94076 | 10815 ft | 9 kts | 245° |
| 2026-04-21 00:25 | -13.53651 | -71.94126 | 10817 ft | 5 kts | 249° |
| 2026-04-21 00:26 | -13.53659 | -71.94149 | 10819 ft | 0 kts | 250° |
| 2026-04-21 00:26 | -13.53656 | -71.94141 | 10818 ft | 0 kts | 250° |
| 2026-04-21 00:26 | -13.53673 | -71.94204 | 10821 ft | 11 kts | 269° |
| 2026-04-21 00:26 | -13.53667 | -71.94276 | 10824 ft | 8 kts | 278° |
| 2026-04-21 00:27 | -13.53662 | -71.94328 | 10826 ft | 5 kts | 274° |
| 2026-04-21 00:27 | -13.53664 | -71.94356 | 10827 ft | 2 kts | 237° |
| 2026-04-21 00:27 | -13.53679 | -71.94369 | 10827 ft | 3 kts | 212° |
| 2026-04-21 00:27 | -13.53702 | -71.94379 | 10828 ft | 3 kts | 207° |
| 2026-04-21 00:28 | -13.53715 | -71.94385 | 10828 ft | 0 kts | 204° |